sensor_id;sensor_type;location;lat;lon;timestamp;P1;durP1;ratioP1;P2;durP2;ratioP2
4921;SDS011;16625;53.624;10.106;2024-03-02T00:01:26;31.63;;;16.90;;
4921;SDS011;16625;53.624;10.106;2024-03-02T00:03:53;29.93;;;15.23;;
4921;SDS011;16625;53.624;10.106;2024-03-02T00:06:20;34.07;;;17.83;;
4921;SDS011;16625;53.624;10.106;2024-03-02T00:08:47;41.07;;;17.67;;
4921;SDS011;16625;53.624;10.106;2024-03-02T00:11:15;34.50;;;16.70;;
4921;SDS011;16625;53.624;10.106;2024-03-02T00:13:43;37.40;;;17.63;;
4921;SDS011;16625;53.624;10.106;2024-03-02T00:16:12;29.57;;;15.40;;
4921;SDS011;16625;53.624;10.106;2024-03-02T00:18:40;33.17;;;17.17;;
4921;SDS011;16625;53.624;10.106;2024-03-02T00:21:07;46.73;;;18.90;;
4921;SDS011;16625;53.624;10.106;2024-03-02T00:23:35;37.37;;;19.20;;
4921;SDS011;16625;53.624;10.106;2024-03-02T00:26:03;32.20;;;18.13;;
4921;SDS011;16625;53.624;10.106;2024-03-02T00:28:32;40.30;;;20.77;;
4921;SDS011;16625;53.624;10.106;2024-03-02T00:31:01;38.17;;;18.57;;
4921;SDS011;16625;53.624;10.106;2024-03-02T00:33:30;40.57;;;19.50;;
4921;SDS011;16625;53.624;10.106;2024-03-02T00:36:00;43.07;;;20.20;;
4921;SDS011;16625;53.624;10.106;2024-03-02T00:38:28;41.70;;;19.67;;
4921;SDS011;16625;53.624;10.106;2024-03-02T00:40:56;38.47;;;18.80;;
4921;SDS011;16625;53.624;10.106;2024-03-02T00:43:37;49.97;;;20.73;;
4921;SDS011;16625;53.624;10.106;2024-03-02T00:46:06;40.40;;;20.37;;
4921;SDS011;16625;53.624;10.106;2024-03-02T00:48:33;37.40;;;19.47;;
4921;SDS011;16625;53.624;10.106;2024-03-02T00:51:03;43.43;;;21.30;;
4921;SDS011;16625;53.624;10.106;2024-03-02T00:53:30;42.80;;;21.63;;
4921;SDS011;16625;53.624;10.106;2024-03-02T00:55:58;43.57;;;21.60;;
4921;SDS011;16625;53.624;10.106;2024-03-02T00:58:25;38.63;;;19.97;;
4921;SDS011;16625;53.624;10.106;2024-03-02T01:00:52;45.40;;;21.67;;
4921;SDS011;16625;53.624;10.106;2024-03-02T01:03:19;47.33;;;22.57;;
4921;SDS011;16625;53.624;10.106;2024-03-02T01:05:46;55.63;;;23.50;;
4921;SDS011;16625;53.624;10.106;2024-03-02T01:08:14;40.80;;;19.90;;
4921;SDS011;16625;53.624;10.106;2024-03-02T01:10:41;42.37;;;21.77;;
4921;SDS011;16625;53.624;10.106;2024-03-02T01:13:09;41.20;;;20.77;;
4921;SDS011;16625;53.624;10.106;2024-03-02T01:15:35;48.70;;;21.17;;
4921;SDS011;16625;53.624;10.106;2024-03-02T01:18:03;46.47;;;20.50;;
4921;SDS011;16625;53.624;10.106;2024-03-02T01:20:30;36.97;;;20.33;;
4921;SDS011;16625;53.624;10.106;2024-03-02T01:22:57;39.83;;;20.93;;
4921;SDS011;16625;53.624;10.106;2024-03-02T01:25:25;47.50;;;22.27;;
4921;SDS011;16625;53.624;10.106;2024-03-02T01:27:52;51.50;;;23.30;;
4921;SDS011;16625;53.624;10.106;2024-03-02T01:30:19;38.87;;;21.37;;
4921;SDS011;16625;53.624;10.106;2024-03-02T01:32:46;40.20;;;21.40;;
4921;SDS011;16625;53.624;10.106;2024-03-02T01:35:13;40.43;;;19.70;;
4921;SDS011;16625;53.624;10.106;2024-03-02T01:37:41;54.60;;;22.17;;
4921;SDS011;16625;53.624;10.106;2024-03-02T01:40:08;46.00;;;21.90;;
4921;SDS011;16625;53.624;10.106;2024-03-02T01:42:37;38.27;;;20.43;;
4921;SDS011;16625;53.624;10.106;2024-03-02T01:45:05;51.10;;;21.60;;
4921;SDS011;16625;53.624;10.106;2024-03-02T01:47:33;39.87;;;21.30;;
4921;SDS011;16625;53.624;10.106;2024-03-02T01:50:00;50.30;;;21.57;;
4921;SDS011;16625;53.624;10.106;2024-03-02T01:52:27;39.13;;;21.70;;
4921;SDS011;16625;53.624;10.106;2024-03-02T01:54:54;43.80;;;21.03;;
4921;SDS011;16625;53.624;10.106;2024-03-02T01:57:21;55.33;;;22.43;;
4921;SDS011;16625;53.624;10.106;2024-03-02T01:59:49;47.27;;;22.07;;
4921;SDS011;16625;53.624;10.106;2024-03-02T02:02:17;39.30;;;21.37;;
4921;SDS011;16625;53.624;10.106;2024-03-02T02:04:45;43.43;;;21.60;;
4921;SDS011;16625;53.624;10.106;2024-03-02T02:07:12;44.63;;;21.10;;
4921;SDS011;16625;53.624;10.106;2024-03-02T02:09:40;51.23;;;22.90;;
4921;SDS011;16625;53.624;10.106;2024-03-02T02:12:07;41.73;;;21.37;;
4921;SDS011;16625;53.624;10.106;2024-03-02T02:14:35;45.47;;;21.60;;
4921;SDS011;16625;53.624;10.106;2024-03-02T02:17:04;49.57;;;21.20;;
4921;SDS011;16625;53.624;10.106;2024-03-02T02:19:30;49.47;;;24.00;;
4921;SDS011;16625;53.624;10.106;2024-03-02T02:21:59;47.13;;;24.07;;
4921;SDS011;16625;53.624;10.106;2024-03-02T02:24:26;42.37;;;20.40;;
4921;SDS011;16625;53.624;10.106;2024-03-02T02:26:52;43.83;;;22.10;;
4921;SDS011;16625;53.624;10.106;2024-03-02T02:29:19;44.50;;;21.83;;
4921;SDS011;16625;53.624;10.106;2024-03-02T02:31:46;49.30;;;23.07;;
4921;SDS011;16625;53.624;10.106;2024-03-02T02:34:13;47.03;;;22.10;;
4921;SDS011;16625;53.624;10.106;2024-03-02T02:36:41;44.47;;;22.10;;
4921;SDS011;16625;53.624;10.106;2024-03-02T02:39:12;43.33;;;22.43;;
4921;SDS011;16625;53.624;10.106;2024-03-02T02:41:41;44.03;;;21.30;;
4921;SDS011;16625;53.624;10.106;2024-03-02T02:44:08;52.37;;;22.37;;
4921;SDS011;16625;53.624;10.106;2024-03-02T02:46:37;43.40;;;23.83;;
4921;SDS011;16625;53.624;10.106;2024-03-02T02:49:04;46.00;;;23.00;;
4921;SDS011;16625;53.624;10.106;2024-03-02T02:51:31;46.93;;;23.60;;
4921;SDS011;16625;53.624;10.106;2024-03-02T02:53:58;40.90;;;21.50;;
4921;SDS011;16625;53.624;10.106;2024-03-02T02:56:27;44.97;;;22.87;;
4921;SDS011;16625;53.624;10.106;2024-03-02T02:58:54;49.93;;;22.50;;
4921;SDS011;16625;53.624;10.106;2024-03-02T03:01:21;43.93;;;21.30;;
4921;SDS011;16625;53.624;10.106;2024-03-02T03:03:47;58.93;;;22.80;;
4921;SDS011;16625;53.624;10.106;2024-03-02T03:06:14;45.77;;;22.47;;
4921;SDS011;16625;53.624;10.106;2024-03-02T03:08:41;47.90;;;23.10;;
4921;SDS011;16625;53.624;10.106;2024-03-02T03:11:08;43.00;;;22.70;;
4921;SDS011;16625;53.624;10.106;2024-03-02T03:13:37;47.07;;;22.80;;
4921;SDS011;16625;53.624;10.106;2024-03-02T03:16:04;52.10;;;21.10;;
4921;SDS011;16625;53.624;10.106;2024-03-02T03:18:31;48.33;;;23.40;;
4921;SDS011;16625;53.624;10.106;2024-03-02T03:20:58;51.80;;;21.90;;
4921;SDS011;16625;53.624;10.106;2024-03-02T03:23:25;49.57;;;23.37;;
4921;SDS011;16625;53.624;10.106;2024-03-02T03:25:51;51.73;;;21.93;;
4921;SDS011;16625;53.624;10.106;2024-03-02T03:28:18;42.87;;;20.83;;
4921;SDS011;16625;53.624;10.106;2024-03-02T03:30:47;54.73;;;20.37;;
4921;SDS011;16625;53.624;10.106;2024-03-02T03:33:13;44.30;;;22.83;;
4921;SDS011;16625;53.624;10.106;2024-03-02T03:35:40;56.63;;;23.50;;
4921;SDS011;16625;53.624;10.106;2024-03-02T03:38:07;51.67;;;22.00;;
4921;SDS011;16625;53.624;10.106;2024-03-02T03:40:34;58.50;;;22.87;;
4921;SDS011;16625;53.624;10.106;2024-03-02T03:43:02;55.27;;;22.70;;
4921;SDS011;16625;53.624;10.106;2024-03-02T03:45:29;38.13;;;19.57;;
4921;SDS011;16625;53.624;10.106;2024-03-02T03:47:57;50.90;;;22.20;;
4921;SDS011;16625;53.624;10.106;2024-03-02T03:50:24;42.87;;;22.90;;
4921;SDS011;16625;53.624;10.106;2024-03-02T03:52:51;45.80;;;23.30;;
4921;SDS011;16625;53.624;10.106;2024-03-02T03:55:18;43.80;;;22.27;;
4921;SDS011;16625;53.624;10.106;2024-03-02T03:57:45;43.37;;;21.50;;
4921;SDS011;16625;53.624;10.106;2024-03-02T04:00:12;38.90;;;21.60;;
4921;SDS011;16625;53.624;10.106;2024-03-02T04:02:40;45.83;;;23.23;;
4921;SDS011;16625;53.624;10.106;2024-03-02T04:05:08;48.70;;;22.20;;
4921;SDS011;16625;53.624;10.106;2024-03-02T04:07:36;48.03;;;21.77;;
4921;SDS011;16625;53.624;10.106;2024-03-02T04:10:06;43.37;;;21.70;;
4921;SDS011;16625;53.624;10.106;2024-03-02T04:12:34;45.47;;;21.30;;
4921;SDS011;16625;53.624;10.106;2024-03-02T04:15:03;47.97;;;23.50;;
4921;SDS011;16625;53.624;10.106;2024-03-02T04:17:31;44.03;;;21.30;;
4921;SDS011;16625;53.624;10.106;2024-03-02T04:20:00;43.07;;;21.83;;
4921;SDS011;16625;53.624;10.106;2024-03-02T04:22:32;38.60;;;21.07;;
4921;SDS011;16625;53.624;10.106;2024-03-02T04:24:59;44.67;;;22.67;;
4921;SDS011;16625;53.624;10.106;2024-03-02T04:27:26;43.23;;;21.97;;
4921;SDS011;16625;53.624;10.106;2024-03-02T04:29:53;39.47;;;20.00;;
4921;SDS011;16625;53.624;10.106;2024-03-02T04:32:20;40.77;;;20.90;;
4921;SDS011;16625;53.624;10.106;2024-03-02T04:34:47;47.77;;;21.37;;
4921;SDS011;16625;53.624;10.106;2024-03-02T04:37:14;41.93;;;19.00;;
4921;SDS011;16625;53.624;10.106;2024-03-02T04:39:42;45.30;;;21.73;;
4921;SDS011;16625;53.624;10.106;2024-03-02T04:42:09;40.37;;;20.90;;
4921;SDS011;16625;53.624;10.106;2024-03-02T04:44:36;37.40;;;19.70;;
4921;SDS011;16625;53.624;10.106;2024-03-02T04:47:03;42.73;;;21.43;;
4921;SDS011;16625;53.624;10.106;2024-03-02T04:49:30;39.97;;;21.87;;
4921;SDS011;16625;53.624;10.106;2024-03-02T04:51:57;36.90;;;18.33;;
4921;SDS011;16625;53.624;10.106;2024-03-02T04:54:24;46.77;;;23.23;;
4921;SDS011;16625;53.624;10.106;2024-03-02T04:56:53;51.87;;;22.20;;
4921;SDS011;16625;53.624;10.106;2024-03-02T04:59:20;41.30;;;21.30;;
4921;SDS011;16625;53.624;10.106;2024-03-02T05:01:46;46.97;;;22.23;;
4921;SDS011;16625;53.624;10.106;2024-03-02T05:04:13;40.00;;;20.87;;
4921;SDS011;16625;53.624;10.106;2024-03-02T05:06:40;37.57;;;21.83;;
4921;SDS011;16625;53.624;10.106;2024-03-02T05:09:07;40.00;;;21.20;;
4921;SDS011;16625;53.624;10.106;2024-03-02T05:11:35;41.20;;;22.30;;
4921;SDS011;16625;53.624;10.106;2024-03-02T05:14:38;44.30;;;23.13;;
4921;SDS011;16625;53.624;10.106;2024-03-02T05:17:05;51.33;;;22.00;;
4921;SDS011;16625;53.624;10.106;2024-03-02T05:19:32;42.10;;;22.13;;
4921;SDS011;16625;53.624;10.106;2024-03-02T05:21:58;46.77;;;21.97;;
4921;SDS011;16625;53.624;10.106;2024-03-02T05:24:25;37.50;;;19.50;;
4921;SDS011;16625;53.624;10.106;2024-03-02T05:26:53;44.70;;;20.80;;
4921;SDS011;16625;53.624;10.106;2024-03-02T05:29:20;44.50;;;20.97;;
4921;SDS011;16625;53.624;10.106;2024-03-02T05:31:49;36.83;;;17.97;;
4921;SDS011;16625;53.624;10.106;2024-03-02T05:34:15;45.30;;;21.10;;
4921;SDS011;16625;53.624;10.106;2024-03-02T05:36:43;37.20;;;20.00;;
4921;SDS011;16625;53.624;10.106;2024-03-02T05:39:10;40.80;;;20.73;;
4921;SDS011;16625;53.624;10.106;2024-03-02T05:41:37;45.20;;;19.57;;
4921;SDS011;16625;53.624;10.106;2024-03-02T05:44:04;47.60;;;21.73;;
4921;SDS011;16625;53.624;10.106;2024-03-02T05:46:31;40.80;;;20.50;;
4921;SDS011;16625;53.624;10.106;2024-03-02T05:48:59;40.67;;;21.13;;
4921;SDS011;16625;53.624;10.106;2024-03-02T05:51:26;39.70;;;20.00;;
4921;SDS011;16625;53.624;10.106;2024-03-02T05:53:53;42.10;;;20.13;;
4921;SDS011;16625;53.624;10.106;2024-03-02T05:56:20;44.10;;;19.87;;
4921;SDS011;16625;53.624;10.106;2024-03-02T05:58:47;37.40;;;20.63;;
4921;SDS011;16625;53.624;10.106;2024-03-02T06:01:25;41.10;;;20.83;;
4921;SDS011;16625;53.624;10.106;2024-03-02T06:03:54;44.60;;;21.47;;
4921;SDS011;16625;53.624;10.106;2024-03-02T06:06:23;44.33;;;19.60;;
4921;SDS011;16625;53.624;10.106;2024-03-02T06:08:50;41.93;;;21.13;;
4921;SDS011;16625;53.624;10.106;2024-03-02T06:11:17;35.80;;;18.43;;
4921;SDS011;16625;53.624;10.106;2024-03-02T06:13:45;41.83;;;18.77;;
4921;SDS011;16625;53.624;10.106;2024-03-02T06:16:12;38.73;;;20.23;;
4921;SDS011;16625;53.624;10.106;2024-03-02T06:18:39;43.60;;;21.37;;
4921;SDS011;16625;53.624;10.106;2024-03-02T06:21:06;49.47;;;24.27;;
4921;SDS011;16625;53.624;10.106;2024-03-02T06:23:34;48.07;;;24.50;;
4921;SDS011;16625;53.624;10.106;2024-03-02T06:26:01;50.10;;;25.57;;
4921;SDS011;16625;53.624;10.106;2024-03-02T06:28:28;41.00;;;22.30;;
4921;SDS011;16625;53.624;10.106;2024-03-02T06:30:55;43.37;;;20.73;;
4921;SDS011;16625;53.624;10.106;2024-03-02T06:33:22;42.17;;;20.70;;
4921;SDS011;16625;53.624;10.106;2024-03-02T06:35:49;38.60;;;18.33;;
4921;SDS011;16625;53.624;10.106;2024-03-02T06:38:16;44.27;;;20.27;;
4921;SDS011;16625;53.624;10.106;2024-03-02T06:40:44;38.70;;;20.63;;
4921;SDS011;16625;53.624;10.106;2024-03-02T06:43:11;33.97;;;18.80;;
4921;SDS011;16625;53.624;10.106;2024-03-02T06:45:38;36.30;;;20.00;;
4921;SDS011;16625;53.624;10.106;2024-03-02T06:48:05;47.03;;;21.53;;
4921;SDS011;16625;53.624;10.106;2024-03-02T06:50:33;37.87;;;19.70;;
4921;SDS011;16625;53.624;10.106;2024-03-02T06:53:00;36.37;;;20.57;;
4921;SDS011;16625;53.624;10.106;2024-03-02T06:55:29;40.87;;;20.03;;
4921;SDS011;16625;53.624;10.106;2024-03-02T06:57:57;41.33;;;20.97;;
4921;SDS011;16625;53.624;10.106;2024-03-02T07:00:24;34.00;;;17.77;;
4921;SDS011;16625;53.624;10.106;2024-03-02T07:02:51;35.80;;;20.73;;
4921;SDS011;16625;53.624;10.106;2024-03-02T07:05:18;41.47;;;20.90;;
4921;SDS011;16625;53.624;10.106;2024-03-02T07:07:46;40.67;;;19.73;;
4921;SDS011;16625;53.624;10.106;2024-03-02T07:10:15;39.10;;;20.10;;
4921;SDS011;16625;53.624;10.106;2024-03-02T07:12:42;43.90;;;20.40;;
4921;SDS011;16625;53.624;10.106;2024-03-02T07:15:13;45.43;;;20.07;;
4921;SDS011;16625;53.624;10.106;2024-03-02T07:18:09;42.03;;;20.13;;
4921;SDS011;16625;53.624;10.106;2024-03-02T07:20:36;37.50;;;19.60;;
4921;SDS011;16625;53.624;10.106;2024-03-02T07:23:05;36.77;;;18.77;;
4921;SDS011;16625;53.624;10.106;2024-03-02T07:25:32;45.03;;;19.50;;
4921;SDS011;16625;53.624;10.106;2024-03-02T07:27:59;45.03;;;20.47;;
4921;SDS011;16625;53.624;10.106;2024-03-02T07:30:27;35.37;;;18.80;;
4921;SDS011;16625;53.624;10.106;2024-03-02T07:32:54;35.07;;;18.43;;
4921;SDS011;16625;53.624;10.106;2024-03-02T07:35:21;41.33;;;20.50;;
4921;SDS011;16625;53.624;10.106;2024-03-02T07:37:51;36.20;;;17.83;;
4921;SDS011;16625;53.624;10.106;2024-03-02T07:40:18;38.97;;;18.00;;
4921;SDS011;16625;53.624;10.106;2024-03-02T07:42:46;32.80;;;17.33;;
4921;SDS011;16625;53.624;10.106;2024-03-02T07:45:13;43.27;;;19.60;;
4921;SDS011;16625;53.624;10.106;2024-03-02T07:47:41;38.37;;;20.17;;
4921;SDS011;16625;53.624;10.106;2024-03-02T07:50:08;43.33;;;19.73;;
4921;SDS011;16625;53.624;10.106;2024-03-02T07:52:35;35.80;;;18.90;;
4921;SDS011;16625;53.624;10.106;2024-03-02T07:55:02;35.20;;;20.00;;
4921;SDS011;16625;53.624;10.106;2024-03-02T07:57:30;39.37;;;17.57;;
4921;SDS011;16625;53.624;10.106;2024-03-02T07:59:57;34.70;;;18.53;;
4921;SDS011;16625;53.624;10.106;2024-03-02T08:02:25;35.50;;;19.17;;
4921;SDS011;16625;53.624;10.106;2024-03-02T08:04:53;39.00;;;20.83;;
4921;SDS011;16625;53.624;10.106;2024-03-02T08:07:20;33.83;;;18.00;;
4921;SDS011;16625;53.624;10.106;2024-03-02T08:09:47;41.47;;;19.63;;
4921;SDS011;16625;53.624;10.106;2024-03-02T08:12:14;34.00;;;20.10;;
4921;SDS011;16625;53.624;10.106;2024-03-02T08:14:41;35.93;;;19.77;;
4921;SDS011;16625;53.624;10.106;2024-03-02T08:17:08;31.13;;;18.50;;
4921;SDS011;16625;53.624;10.106;2024-03-02T08:19:36;28.60;;;17.83;;
4921;SDS011;16625;53.624;10.106;2024-03-02T08:22:05;37.47;;;17.53;;
4921;SDS011;16625;53.624;10.106;2024-03-02T08:24:32;28.60;;;15.87;;
4921;SDS011;16625;53.624;10.106;2024-03-02T08:27:02;36.37;;;17.60;;
4921;SDS011;16625;53.624;10.106;2024-03-02T08:29:29;31.80;;;16.97;;
4921;SDS011;16625;53.624;10.106;2024-03-02T08:31:56;33.13;;;17.17;;
4921;SDS011;16625;53.624;10.106;2024-03-02T08:34:23;31.07;;;18.33;;
4921;SDS011;16625;53.624;10.106;2024-03-02T08:36:50;35.77;;;18.40;;
4921;SDS011;16625;53.624;10.106;2024-03-02T08:39:18;32.77;;;17.73;;
4921;SDS011;16625;53.624;10.106;2024-03-02T08:41:46;35.73;;;17.60;;
4921;SDS011;16625;53.624;10.106;2024-03-02T08:44:13;30.77;;;16.33;;
4921;SDS011;16625;53.624;10.106;2024-03-02T08:46:41;38.03;;;17.70;;
4921;SDS011;16625;53.624;10.106;2024-03-02T08:49:08;28.30;;;15.50;;
4921;SDS011;16625;53.624;10.106;2024-03-02T08:51:35;32.63;;;16.50;;
4921;SDS011;16625;53.624;10.106;2024-03-02T08:54:02;30.10;;;15.13;;
4921;SDS011;16625;53.624;10.106;2024-03-02T08:56:32;30.23;;;15.90;;
4921;SDS011;16625;53.624;10.106;2024-03-02T08:58:59;25.53;;;15.10;;
4921;SDS011;16625;53.624;10.106;2024-03-02T09:01:26;28.50;;;15.40;;
4921;SDS011;16625;53.624;10.106;2024-03-02T09:03:53;29.67;;;14.87;;
4921;SDS011;16625;53.624;10.106;2024-03-02T09:06:20;33.03;;;16.20;;
4921;SDS011;16625;53.624;10.106;2024-03-02T09:08:47;28.40;;;16.07;;
4921;SDS011;16625;53.624;10.106;2024-03-02T09:11:15;28.27;;;15.77;;
4921;SDS011;16625;53.624;10.106;2024-03-02T09:13:43;27.33;;;16.10;;
4921;SDS011;16625;53.624;10.106;2024-03-02T09:16:10;31.37;;;14.50;;
4921;SDS011;16625;53.624;10.106;2024-03-02T09:18:37;33.97;;;16.47;;
4921;SDS011;16625;53.624;10.106;2024-03-02T09:21:04;34.03;;;16.43;;
4921;SDS011;16625;53.624;10.106;2024-03-02T09:23:31;34.97;;;15.37;;
4921;SDS011;16625;53.624;10.106;2024-03-02T09:25:59;24.57;;;15.77;;
4921;SDS011;16625;53.624;10.106;2024-03-02T09:28:26;27.70;;;15.87;;
4921;SDS011;16625;53.624;10.106;2024-03-02T09:30:54;29.30;;;16.73;;
4921;SDS011;16625;53.624;10.106;2024-03-02T09:33:21;33.27;;;16.63;;
4921;SDS011;16625;53.624;10.106;2024-03-02T09:35:48;24.77;;;13.83;;
4921;SDS011;16625;53.624;10.106;2024-03-02T09:38:15;30.53;;;15.07;;
4921;SDS011;16625;53.624;10.106;2024-03-02T09:40:42;25.70;;;16.60;;
4921;SDS011;16625;53.624;10.106;2024-03-02T09:43:09;31.00;;;16.47;;
4921;SDS011;16625;53.624;10.106;2024-03-02T09:45:36;23.17;;;12.73;;
4921;SDS011;16625;53.624;10.106;2024-03-02T09:48:06;27.97;;;13.80;;
4921;SDS011;16625;53.624;10.106;2024-03-02T09:50:33;23.27;;;14.77;;
4921;SDS011;16625;53.624;10.106;2024-03-02T09:53:00;26.70;;;13.87;;
4921;SDS011;16625;53.624;10.106;2024-03-02T09:55:27;24.63;;;13.57;;
4921;SDS011;16625;53.624;10.106;2024-03-02T09:57:54;27.50;;;13.80;;
4921;SDS011;16625;53.624;10.106;2024-03-02T10:00:21;28.20;;;14.73;;
4921;SDS011;16625;53.624;10.106;2024-03-02T10:02:48;26.33;;;13.97;;
4921;SDS011;16625;53.624;10.106;2024-03-02T10:05:27;32.30;;;15.00;;
4921;SDS011;16625;53.624;10.106;2024-03-02T10:08:00;29.27;;;14.87;;
4921;SDS011;16625;53.624;10.106;2024-03-02T10:10:34;29.03;;;14.87;;
4921;SDS011;16625;53.624;10.106;2024-03-02T10:13:05;24.93;;;13.87;;
4921;SDS011;16625;53.624;10.106;2024-03-02T10:15:33;21.20;;;12.20;;
4921;SDS011;16625;53.624;10.106;2024-03-02T10:18:01;19.70;;;11.53;;
4921;SDS011;16625;53.624;10.106;2024-03-02T10:20:29;27.03;;;13.60;;
4921;SDS011;16625;53.624;10.106;2024-03-02T10:23:00;24.33;;;14.27;;
4921;SDS011;16625;53.624;10.106;2024-03-02T10:25:36;22.77;;;13.17;;
4921;SDS011;16625;53.624;10.106;2024-03-02T10:28:04;23.17;;;13.40;;
4921;SDS011;16625;53.624;10.106;2024-03-02T10:30:36;23.97;;;13.27;;
4921;SDS011;16625;53.624;10.106;2024-03-02T10:33:03;24.50;;;13.97;;
4921;SDS011;16625;53.624;10.106;2024-03-02T10:35:33;25.83;;;13.77;;
4921;SDS011;16625;53.624;10.106;2024-03-02T10:38:01;20.70;;;11.60;;
4921;SDS011;16625;53.624;10.106;2024-03-02T10:40:31;20.10;;;12.03;;
4921;SDS011;16625;53.624;10.106;2024-03-02T10:42:58;19.90;;;11.80;;
4921;SDS011;16625;53.624;10.106;2024-03-02T10:45:26;18.50;;;10.73;;
4921;SDS011;16625;53.624;10.106;2024-03-02T10:47:54;21.27;;;10.80;;
4921;SDS011;16625;53.624;10.106;2024-03-02T10:50:22;18.80;;;11.13;;
4921;SDS011;16625;53.624;10.106;2024-03-02T10:52:51;20.50;;;10.27;;
4921;SDS011;16625;53.624;10.106;2024-03-02T10:55:18;16.37;;;10.50;;
4921;SDS011;16625;53.624;10.106;2024-03-02T10:57:48;21.53;;;11.77;;
4921;SDS011;16625;53.624;10.106;2024-03-02T11:00:17;17.53;;;10.07;;
4921;SDS011;16625;53.624;10.106;2024-03-02T11:02:50;16.27;;;10.23;;
4921;SDS011;16625;53.624;10.106;2024-03-02T11:05:21;19.57;;;11.10;;
4921;SDS011;16625;53.624;10.106;2024-03-02T11:07:57;18.63;;;10.43;;
4921;SDS011;16625;53.624;10.106;2024-03-02T11:10:29;19.33;;;10.10;;
4921;SDS011;16625;53.624;10.106;2024-03-02T11:13:02;19.37;;;10.40;;
4921;SDS011;16625;53.624;10.106;2024-03-02T11:15:32;20.63;;;10.87;;
4921;SDS011;16625;53.624;10.106;2024-03-02T11:18:03;20.23;;;11.07;;
4921;SDS011;16625;53.624;10.106;2024-03-02T11:20:33;18.43;;;10.73;;
4921;SDS011;16625;53.624;10.106;2024-03-02T11:23:05;17.30;;;9.87;;
4921;SDS011;16625;53.624;10.106;2024-03-02T11:25:33;17.17;;;10.77;;
4921;SDS011;16625;53.624;10.106;2024-03-02T11:28:01;23.60;;;11.67;;
4921;SDS011;16625;53.624;10.106;2024-03-02T11:33:24;19.93;;;10.60;;
4921;SDS011;16625;53.624;10.106;2024-03-02T11:35:57;17.13;;;10.53;;
4921;SDS011;16625;53.624;10.106;2024-03-02T11:38:31;19.80;;;10.50;;
4921;SDS011;16625;53.624;10.106;2024-03-02T11:40:59;18.50;;;10.60;;
4921;SDS011;16625;53.624;10.106;2024-03-02T11:43:27;19.07;;;10.90;;
4921;SDS011;16625;53.624;10.106;2024-03-02T11:45:58;17.10;;;10.63;;
4921;SDS011;16625;53.624;10.106;2024-03-02T11:48:25;17.87;;;10.33;;
4921;SDS011;16625;53.624;10.106;2024-03-02T11:50:52;18.10;;;10.70;;
4921;SDS011;16625;53.624;10.106;2024-03-02T11:53:23;16.53;;;10.40;;
4921;SDS011;16625;53.624;10.106;2024-03-02T11:55:58;18.20;;;11.20;;
4921;SDS011;16625;53.624;10.106;2024-03-02T11:58:28;18.50;;;10.97;;
4921;SDS011;16625;53.624;10.106;2024-03-02T14:12:30;15.73;;;8.27;;
4921;SDS011;16625;53.624;10.106;2024-03-02T14:14:57;19.23;;;8.40;;
4921;SDS011;16625;53.624;10.106;2024-03-02T14:17:24;15.33;;;9.50;;
4921;SDS011;16625;53.624;10.106;2024-03-02T14:19:53;18.17;;;9.97;;
4921;SDS011;16625;53.624;10.106;2024-03-02T14:22:20;18.40;;;8.83;;
4921;SDS011;16625;53.624;10.106;2024-03-02T14:24:47;15.87;;;8.83;;
4921;SDS011;16625;53.624;10.106;2024-03-02T14:27:14;15.60;;;8.97;;
4921;SDS011;16625;53.624;10.106;2024-03-02T14:29:43;20.93;;;10.10;;
4921;SDS011;16625;53.624;10.106;2024-03-02T14:32:10;18.03;;;8.90;;
4921;SDS011;16625;53.624;10.106;2024-03-02T14:34:37;12.40;;;7.77;;
4921;SDS011;16625;53.624;10.106;2024-03-02T14:37:04;13.10;;;8.77;;
4921;SDS011;16625;53.624;10.106;2024-03-02T14:39:31;12.13;;;7.50;;
4921;SDS011;16625;53.624;10.106;2024-03-02T14:41:59;12.00;;;7.57;;
4921;SDS011;16625;53.624;10.106;2024-03-02T14:44:27;14.80;;;8.77;;
4921;SDS011;16625;53.624;10.106;2024-03-02T14:46:55;13.00;;;7.47;;
4921;SDS011;16625;53.624;10.106;2024-03-02T14:49:23;23.80;;;9.23;;
4921;SDS011;16625;53.624;10.106;2024-03-02T14:51:52;12.30;;;8.30;;
4921;SDS011;16625;53.624;10.106;2024-03-02T14:54:19;15.17;;;9.40;;
4921;SDS011;16625;53.624;10.106;2024-03-02T14:56:46;13.90;;;8.00;;
4921;SDS011;16625;53.624;10.106;2024-03-02T14:59:13;21.03;;;9.63;;
4921;SDS011;16625;53.624;10.106;2024-03-02T15:01:40;14.80;;;9.13;;
4921;SDS011;16625;53.624;10.106;2024-03-02T15:04:08;15.03;;;9.07;;
4921;SDS011;16625;53.624;10.106;2024-03-02T15:06:37;19.80;;;9.20;;
4921;SDS011;16625;53.624;10.106;2024-03-02T15:09:03;19.37;;;10.23;;
4921;SDS011;16625;53.624;10.106;2024-03-02T15:11:31;13.60;;;8.10;;
4921;SDS011;16625;53.624;10.106;2024-03-02T15:13:58;14.63;;;8.50;;
4921;SDS011;16625;53.624;10.106;2024-03-02T15:16:25;21.97;;;8.43;;
4921;SDS011;16625;53.624;10.106;2024-03-02T15:18:53;22.80;;;8.43;;
4921;SDS011;16625;53.624;10.106;2024-03-02T15:21:22;12.70;;;7.83;;
4921;SDS011;16625;53.624;10.106;2024-03-02T15:23:49;14.03;;;8.70;;
4921;SDS011;16625;53.624;10.106;2024-03-02T15:26:16;14.07;;;8.57;;
4921;SDS011;16625;53.624;10.106;2024-03-02T15:28:43;14.03;;;7.43;;
4921;SDS011;16625;53.624;10.106;2024-03-02T15:31:10;12.43;;;7.53;;
4921;SDS011;16625;53.624;10.106;2024-03-02T15:33:37;14.03;;;7.90;;
4921;SDS011;16625;53.624;10.106;2024-03-02T15:36:04;13.67;;;8.13;;
4921;SDS011;16625;53.624;10.106;2024-03-02T15:38:33;15.53;;;9.30;;
4921;SDS011;16625;53.624;10.106;2024-03-02T15:41:02;17.80;;;9.43;;
4921;SDS011;16625;53.624;10.106;2024-03-02T15:43:29;14.77;;;9.17;;
4921;SDS011;16625;53.624;10.106;2024-03-02T15:45:57;17.47;;;10.43;;
4921;SDS011;16625;53.624;10.106;2024-03-02T15:48:24;16.60;;;9.40;;
4921;SDS011;16625;53.624;10.106;2024-03-02T15:50:51;14.10;;;9.57;;
4921;SDS011;16625;53.624;10.106;2024-03-02T15:53:18;20.00;;;11.27;;
4921;SDS011;16625;53.624;10.106;2024-03-02T15:55:47;15.83;;;9.10;;
4921;SDS011;16625;53.624;10.106;2024-03-02T15:58:14;16.53;;;9.43;;
4921;SDS011;16625;53.624;10.106;2024-03-02T16:00:42;15.60;;;8.53;;
4921;SDS011;16625;53.624;10.106;2024-03-02T16:03:09;14.43;;;8.20;;
4921;SDS011;16625;53.624;10.106;2024-03-02T16:05:36;15.90;;;9.17;;
4921;SDS011;16625;53.624;10.106;2024-03-02T16:08:03;14.47;;;8.27;;
4921;SDS011;16625;53.624;10.106;2024-03-02T16:10:30;11.53;;;7.77;;
4921;SDS011;16625;53.624;10.106;2024-03-02T16:12:59;15.33;;;8.90;;
4921;SDS011;16625;53.624;10.106;2024-03-02T16:15:26;11.30;;;7.00;;
4921;SDS011;16625;53.624;10.106;2024-03-02T16:17:53;17.57;;;7.67;;
4921;SDS011;16625;53.624;10.106;2024-03-02T16:20:24;14.63;;;8.20;;
4921;SDS011;16625;53.624;10.106;2024-03-02T16:22:51;16.27;;;8.00;;
4921;SDS011;16625;53.624;10.106;2024-03-02T16:25:18;10.70;;;6.63;;
4921;SDS011;16625;53.624;10.106;2024-03-02T16:27:45;14.63;;;8.10;;
4921;SDS011;16625;53.624;10.106;2024-03-02T16:30:13;13.43;;;7.70;;
4921;SDS011;16625;53.624;10.106;2024-03-02T16:32:40;16.90;;;7.70;;
4921;SDS011;16625;53.624;10.106;2024-03-02T16:35:08;13.00;;;8.33;;
4921;SDS011;16625;53.624;10.106;2024-03-02T16:37:35;17.03;;;8.60;;
4921;SDS011;16625;53.624;10.106;2024-03-02T16:40:02;17.83;;;9.40;;
4921;SDS011;16625;53.624;10.106;2024-03-02T16:42:30;16.17;;;9.03;;